createdAt,value
2023-06-23T00:00:29.781Z,0.10
2023-06-23T00:05:30.028Z,0.20
2023-06-23T00:10:28.423Z,0.10
2023-06-23T00:15:28.382Z,0.10
2023-06-23T00:20:26.792Z,0.10
2023-06-23T00:25:26.480Z,0.10
2023-06-23T00:30:25.264Z,0.10
2023-06-23T00:35:24.060Z,0.20
2023-06-23T00:40:24.045Z,0.10
2023-06-23T00:45:24.234Z,0.10
2023-06-23T00:50:23.323Z,0.10
2023-06-23T00:55:21.830Z,0.10
2023-06-23T01:00:20.820Z,0.10
2023-06-23T01:05:24.300Z,0.20
2023-06-23T01:10:26.540Z,0.10
2023-06-23T01:15:29.679Z,0.10
2023-06-23T01:20:30.682Z,0.10
2023-06-23T01:25:37.041Z,0.10
2023-06-23T01:30:37.432Z,0.20
2023-06-23T01:35:39.239Z,0.10
2023-06-23T01:40:38.174Z,0.10
2023-06-23T01:45:40.979Z,0.10
2023-06-23T01:50:42.063Z,0.10
2023-06-23T01:55:40.872Z,0.10
2023-06-23T02:00:40.978Z,0.20
2023-06-23T02:05:40.173Z,0.10
2023-06-23T02:10:39.221Z,0.10
2023-06-23T02:15:38.849Z,0.10
2023-06-23T02:20:41.235Z,0.10
2023-06-23T02:25:40.858Z,0.10
2023-06-23T02:30:39.083Z,0.10
2023-06-23T02:35:38.465Z,0.20
2023-06-23T02:40:38.919Z,0.15
2023-06-23T02:45:39.616Z,0.20
2023-06-23T02:50:40.280Z,0.10
2023-06-23T02:55:41.383Z,0.10
2023-06-23T03:00:40.709Z,0.10
2023-06-23T03:05:40.135Z,0.10
2023-06-23T03:10:39.942Z,0.10
2023-06-23T03:15:38.739Z,0.10
2023-06-23T03:20:38.646Z,0.10
2023-06-23T03:25:41.586Z,0.10
2023-06-23T03:30:42.120Z,0.10
2023-06-23T03:35:43.013Z,0.10
2023-06-23T03:40:45.870Z,0.10
2023-06-23T03:45:47.246Z,0.10
2023-06-23T03:50:46.873Z,0.10
2023-06-23T03:55:48.324Z,0.10
2023-06-23T04:00:48.358Z,0.20
2023-06-23T04:05:50.943Z,0.10
2023-06-23T04:10:51.296Z,0.20
2023-06-23T04:15:53.214Z,0.15
2023-06-23T04:20:51.697Z,0.10
2023-06-23T04:25:52.657Z,0.20
2023-06-23T04:30:51.129Z,0.10
2023-06-23T04:35:49.485Z,0.20
2023-06-23T04:40:48.826Z,0.20
2023-06-23T04:45:51.055Z,0.10
2023-06-23T04:50:50.237Z,0.20
2023-06-23T04:55:52.261Z,0.10
2023-06-23T05:00:52.870Z,0.20
2023-06-23T05:05:52.999Z,0.10
2023-06-23T05:10:53.231Z,0.20
2023-06-23T05:15:54.046Z,0.20
2023-06-23T05:20:53.983Z,0.20
2023-06-23T05:25:53.104Z,0.10
2023-06-23T05:30:53.596Z,0.20
2023-06-23T05:35:52.813Z,0.17
2023-06-23T05:40:50.956Z,0.10
2023-06-23T05:45:49.337Z,0.20
2023-06-23T05:50:49.227Z,0.20
2023-06-23T05:55:51.278Z,0.10
2023-06-23T06:00:53.654Z,0.10
2023-06-23T06:05:56.425Z,0.20
2023-06-23T06:10:55.647Z,0.20
2023-06-23T06:15:54.148Z,0.20
2023-06-23T06:20:55.177Z,0.20
2023-06-23T06:25:54.732Z,0.20
2023-06-23T06:30:54.949Z,0.20
2023-06-23T06:35:56.407Z,0.20
2023-06-23T06:40:55.885Z,0.20
2023-06-23T06:45:54.373Z,0.20
2023-06-23T06:50:52.687Z,0.20
2023-06-23T06:55:53.121Z,0.20
2023-06-23T07:00:51.278Z,0.20
2023-06-23T07:05:49.516Z,0.20
2023-06-23T07:10:47.939Z,0.20
2023-06-23T07:15:48.157Z,0.20
2023-06-23T07:20:46.903Z,0.20
2023-06-23T07:25:45.359Z,0.20
2023-06-23T07:30:44.754Z,0.20
2023-06-23T07:35:44.615Z,0.20
2023-06-23T07:40:42.557Z,0.20
2023-06-23T07:45:40.671Z,0.20
2023-06-23T07:50:38.734Z,0.20
2023-06-23T07:55:38.185Z,0.20
2023-06-23T08:00:36.534Z,0.20
2023-06-23T08:05:35.233Z,0.20
2023-06-23T08:10:33.627Z,0.20
2023-06-23T08:15:33.410Z,0.20
2023-06-23T08:20:31.886Z,0.20
2023-06-23T08:25:30.013Z,0.20
2023-06-23T08:30:30.601Z,0.20
2023-06-23T08:35:30.534Z,0.30
2023-06-23T08:40:28.884Z,0.20
2023-06-23T08:45:28.601Z,0.20
2023-06-23T08:50:26.919Z,0.30
2023-06-23T08:55:26.326Z,0.20
2023-06-23T09:00:24.355Z,0.20
2023-06-23T09:05:22.450Z,0.20
2023-06-23T09:10:20.750Z,0.25
2023-06-23T09:15:20.302Z,0.30
2023-06-23T09:20:18.341Z,0.30
2023-06-23T09:25:38.356Z,0.22
2023-06-23T09:30:38.177Z,0.20
2023-06-23T09:35:37.032Z,0.20
2023-06-23T09:40:35.457Z,0.20
2023-06-23T09:45:35.480Z,0.20
2023-06-23T09:50:34.994Z,0.30
2023-06-23T09:55:33.957Z,0.20
2023-06-23T10:00:33.428Z,0.20
2023-06-23T10:05:37.113Z,0.22
2023-06-23T10:10:35.062Z,0.30
2023-06-23T10:15:33.371Z,0.20
2023-06-23T10:20:31.979Z,0.20
2023-06-23T10:25:31.843Z,0.20
2023-06-23T10:30:31.848Z,0.20
2023-06-23T10:35:31.929Z,0.20
2023-06-23T10:40:35.390Z,0.20
2023-06-23T10:45:34.085Z,0.20
2023-06-23T10:50:32.668Z,0.20
2023-06-23T10:55:48.533Z,0.20
2023-06-23T11:01:01.370Z,0.20
2023-06-23T11:06:00.146Z,0.20
2023-06-23T11:11:01.240Z,0.20
2023-06-23T11:16:01.029Z,0.20
2023-06-23T11:21:04.126Z,0.20
2023-06-23T11:26:03.494Z,0.20
2023-06-23T11:31:05.725Z,0.20
2023-06-23T11:36:04.637Z,0.20
2023-06-23T11:41:05.115Z,0.20
2023-06-23T11:46:08.402Z,0.20
2023-06-23T11:51:08.516Z,0.20
2023-06-23T11:56:08.627Z,0.20
2023-06-23T12:01:06.785Z,0.20
2023-06-23T12:06:04.833Z,0.20
2023-06-23T12:11:03.006Z,0.20
2023-06-23T12:16:02.473Z,0.20
2023-06-23T12:21:01.543Z,0.20
2023-06-23T12:26:00.248Z,0.20
2023-06-23T12:30:58.818Z,0.20
2023-06-23T12:36:00.672Z,0.20
2023-06-23T12:41:14.360Z,0.30
2023-06-23T12:46:13.193Z,0.20
2023-06-23T12:51:12.654Z,0.30
2023-06-23T12:56:11.693Z,0.30
2023-06-23T13:01:09.769Z,0.30
2023-06-23T13:06:07.815Z,0.30
2023-06-23T13:11:07.553Z,0.30
2023-06-23T13:16:05.774Z,0.30
2023-06-23T13:21:03.789Z,0.30
2023-06-23T13:26:01.842Z,0.30
2023-06-23T13:31:01.211Z,0.30
2023-06-23T13:35:59.136Z,0.30
2023-06-23T13:40:57.950Z,0.30
2023-06-23T13:45:57.734Z,0.30
2023-06-23T13:50:57.675Z,0.30
2023-06-23T13:55:56.188Z,0.30
2023-06-23T14:00:54.454Z,0.30
2023-06-23T14:05:54.151Z,0.30
2023-06-23T14:10:55.325Z,0.30
2023-06-23T14:15:53.732Z,0.30
2023-06-23T14:20:52.152Z,0.30
2023-06-23T14:25:50.668Z,0.30
2023-06-23T14:30:50.368Z,0.30
2023-06-23T14:35:48.491Z,0.30
2023-06-23T14:40:46.645Z,0.38
2023-06-23T14:45:50.873Z,0.30
2023-06-23T14:50:50.906Z,0.30
2023-06-23T14:55:49.400Z,0.30
2023-06-23T15:00:47.440Z,0.40
2023-06-23T15:05:45.785Z,0.30
2023-06-23T15:10:46.287Z,0.30
2023-06-23T15:15:44.448Z,0.30
2023-06-23T15:20:42.965Z,0.30
2023-06-23T15:25:41.132Z,0.30
2023-06-23T15:30:40.676Z,0.30
2023-06-23T15:35:38.856Z,0.30
2023-06-23T15:40:37.806Z,0.30
2023-06-23T15:45:37.552Z,0.30
2023-06-23T15:50:37.587Z,0.30
2023-06-23T15:55:36.070Z,0.30
2023-06-23T16:00:34.727Z,0.30
2023-06-23T16:05:39.559Z,0.28
2023-06-23T16:10:40.668Z,0.20
2023-06-23T16:15:38.942Z,0.30
2023-06-23T16:20:38.721Z,0.20
2023-06-23T16:25:36.800Z,0.20
2023-06-23T16:30:36.550Z,0.20
2023-06-23T16:35:35.104Z,0.20
2023-06-23T16:40:33.277Z,0.20
2023-06-23T16:45:31.369Z,0.20
2023-06-23T16:50:31.016Z,0.20
2023-06-23T16:55:29.460Z,0.20
2023-06-23T17:00:29.396Z,0.20
2023-06-23T17:05:27.765Z,0.20
2023-06-23T17:10:27.206Z,0.20
2023-06-23T17:15:25.255Z,0.15
2023-06-23T17:20:23.174Z,0.20
2023-06-23T17:25:21.273Z,0.20
2023-06-23T17:30:20.590Z,0.10
2023-06-23T17:35:18.624Z,0.20
2023-06-23T17:40:16.633Z,0.17
2023-06-23T17:45:14.612Z,0.20
2023-06-23T17:50:14.256Z,0.20
2023-06-23T17:55:12.265Z,0.20
2023-06-23T18:00:11.765Z,0.10
2023-06-23T18:05:10.156Z,0.20
2023-06-23T18:10:09.961Z,0.20
2023-06-23T18:15:08.574Z,0.20
2023-06-23T18:20:07.249Z,0.20
2023-06-23T18:25:05.663Z,0.20
2023-06-23T18:30:05.464Z,0.10
2023-06-23T18:35:03.446Z,0.20
2023-06-23T18:40:01.489Z,0.20
2023-06-23T18:44:59.490Z,0.20
2023-06-23T18:49:59.640Z,0.10
2023-06-23T18:54:57.545Z,0.20
2023-06-23T18:59:55.434Z,0.10
2023-06-23T19:04:53.371Z,0.20
2023-06-23T19:09:52.763Z,0.10
2023-06-23T19:14:52.170Z,0.20
2023-06-23T19:19:50.130Z,0.10
2023-06-23T19:24:48.145Z,0.20
2023-06-23T19:29:47.453Z,0.20
2023-06-23T19:34:45.408Z,0.20
2023-06-23T19:39:55.341Z,0.20
2023-06-23T19:44:59.154Z,0.17
2023-06-23T19:49:57.125Z,0.20
2023-06-23T19:54:56.403Z,0.10
2023-06-23T19:59:54.944Z,0.10
2023-06-23T20:04:54.346Z,0.13
2023-06-23T20:09:52.252Z,0.10
2023-06-23T20:14:52.156Z,0.10
2023-06-23T20:19:50.390Z,0.20
2023-06-23T20:24:49.955Z,0.10
2023-06-23T20:29:48.021Z,0.20
2023-06-23T20:34:46.587Z,0.20
2023-06-23T20:39:44.713Z,0.20
2023-06-23T20:44:44.412Z,0.10
2023-06-23T20:49:42.627Z,0.10
2023-06-23T20:54:40.626Z,0.20
2023-06-23T20:59:39.171Z,0.10
2023-06-23T21:04:39.988Z,0.10
2023-06-23T21:09:39.726Z,0.15
2023-06-23T21:14:39.465Z,0.10
2023-06-23T21:19:40.419Z,0.10
2023-06-23T21:24:38.347Z,0.15
2023-06-23T21:29:37.227Z,0.10
2023-06-23T21:34:35.680Z,0.10
2023-06-23T21:39:35.037Z,0.20
2023-06-23T21:44:33.606Z,0.20
2023-06-23T21:49:31.736Z,0.20
2023-06-23T21:54:30.305Z,0.10
2023-06-23T21:59:30.541Z,0.10
2023-06-23T22:04:28.957Z,0.10
2023-06-23T22:09:27.197Z,0.20
2023-06-23T22:14:26.547Z,0.10
2023-06-23T22:19:26.239Z,0.20
2023-06-23T22:24:24.515Z,0.20
2023-06-23T22:29:22.486Z,0.20
2023-06-23T22:34:20.807Z,0.20
2023-06-23T22:39:21.157Z,0.10
2023-06-23T22:44:19.420Z,0.15
2023-06-23T22:49:17.403Z,0.10
2023-06-23T22:54:15.481Z,0.10
2023-06-23T22:59:15.181Z,0.15
2023-06-23T23:04:14.858Z,0.10
2023-06-23T23:09:13.014Z,0.10
2023-06-23T23:14:11.674Z,0.20
2023-06-23T23:19:11.560Z,0.10
2023-06-23T23:24:19.832Z,0.10
2023-06-23T23:29:20.576Z,0.20
2023-06-23T23:34:19.978Z,0.10
2023-06-23T23:39:19.432Z,0.20
2023-06-23T23:44:17.731Z,0.20
2023-06-23T23:49:15.668Z,0.20
2023-06-23T23:54:15.000Z,0.10
2023-06-23T23:59:13.237Z,0.10
